createdAt,value
2022-12-13T00:01:16.613Z,-2.60
2022-12-13T00:03:43.864Z,-2.60
2022-12-13T00:06:11.700Z,-2.60
2022-12-13T00:08:39.071Z,-2.70
2022-12-13T00:11:08.336Z,-2.70
2022-12-13T00:13:35.074Z,-2.70
2022-12-13T00:16:04.774Z,-2.70
2022-12-13T00:18:32.328Z,-2.70
2022-12-13T00:20:59.549Z,-2.60
2022-12-13T00:23:28.452Z,-2.60
2022-12-13T00:25:55.099Z,-2.60
2022-12-13T00:28:21.771Z,-2.70
2022-12-13T00:30:48.428Z,-2.70
2022-12-13T00:33:15.094Z,-2.70
2022-12-13T00:35:42.541Z,-2.70
2022-12-13T00:38:10.172Z,-2.70
2022-12-13T00:40:36.881Z,-2.70
2022-12-13T00:43:03.519Z,-2.70
2022-12-13T00:45:30.170Z,-2.80
2022-12-13T00:47:56.818Z,-2.70
2022-12-13T00:50:23.461Z,-2.80
2022-12-13T00:52:50.358Z,-2.70
2022-12-13T00:55:17.230Z,-2.80
2022-12-13T00:57:44.067Z,-2.50
2022-12-13T01:00:11.282Z,-2.70
2022-12-13T01:02:38.101Z,-2.80
2022-12-13T01:05:05.077Z,-2.80
2022-12-13T01:07:31.741Z,-2.80
2022-12-13T01:09:58.977Z,-2.90
2022-12-13T01:12:25.679Z,-2.90
2022-12-13T01:14:56.059Z,-2.90
2022-12-13T01:17:23.041Z,-2.90
2022-12-13T01:19:49.689Z,-2.90
2022-12-13T01:22:16.316Z,-2.90
2022-12-13T01:24:42.986Z,-2.90
2022-12-13T01:27:09.748Z,-2.90
2022-12-13T01:29:36.541Z,-3.00
2022-12-13T01:32:03.719Z,-3.00
2022-12-13T01:34:30.336Z,-1.70
2022-12-13T01:36:57.993Z,-3.00
2022-12-13T01:39:26.677Z,-3.00
2022-12-13T01:41:59.274Z,-3.00
2022-12-13T01:44:57.144Z,-3.00
2022-12-13T01:47:34.985Z,-3.10
2022-12-13T01:50:06.286Z,-3.20
2022-12-13T01:52:34.282Z,-3.20
2022-12-13T01:55:04.083Z,-3.20
2022-12-13T01:57:33.004Z,-3.20
2022-12-13T02:00:00.011Z,-3.20
2022-12-13T02:02:26.731Z,-3.10
2022-12-13T02:05:03.513Z,-3.20
2022-12-13T02:07:34.053Z,-3.20
2022-12-13T02:10:04.353Z,-3.30
2022-12-13T02:12:33.673Z,-3.20
2022-12-13T02:15:03.644Z,-3.20
2022-12-13T02:17:57.029Z,-3.20
2022-12-13T02:20:45.009Z,-3.30
2022-12-13T02:23:27.464Z,-3.30
2022-12-13T02:26:00.765Z,-3.30
2022-12-13T02:29:04.881Z,-3.30
2022-12-13T02:31:46.605Z,-3.40
2022-12-13T02:34:21.634Z,-3.30
2022-12-13T02:36:48.295Z,-3.40
2022-12-13T02:39:30.545Z,-3.40
2022-12-13T02:42:07.000Z,-3.40
2022-12-13T02:44:52.270Z,-3.40
2022-12-13T02:47:23.061Z,-3.40
2022-12-13T02:49:57.911Z,-3.50
2022-12-13T02:52:27.365Z,-3.60
2022-12-13T02:54:55.742Z,-3.60
2022-12-13T02:57:32.865Z,-3.60
2022-12-13T03:00:05.074Z,-3.60
2022-12-13T03:02:57.234Z,-3.60
2022-12-13T03:06:09.257Z,-3.60
2022-12-13T03:08:55.004Z,-3.60
2022-12-13T03:11:23.490Z,-3.60
2022-12-13T03:14:00.305Z,-3.60
2022-12-13T03:16:37.916Z,-3.70
2022-12-13T03:19:07.733Z,-3.70
2022-12-13T03:21:48.269Z,-3.70
2022-12-13T03:24:20.358Z,-3.70
2022-12-13T03:26:49.617Z,-3.80
2022-12-13T03:29:23.542Z,-3.80
2022-12-13T03:31:51.351Z,-3.80
2022-12-13T03:34:22.893Z,-3.80
2022-12-13T03:36:51.188Z,-3.80
2022-12-13T03:39:18.082Z,-3.80
2022-12-13T03:41:44.786Z,-3.80
2022-12-13T03:44:11.428Z,-3.80
2022-12-13T03:46:38.909Z,-3.80
2022-12-13T03:49:05.670Z,-3.70
2022-12-13T03:51:32.432Z,-3.80
2022-12-13T03:53:59.081Z,-3.80
2022-12-13T03:56:26.248Z,-3.80
2022-12-13T03:58:52.940Z,-3.80
2022-12-13T04:01:19.853Z,-3.80
2022-12-13T04:03:47.409Z,-3.80
2022-12-13T04:06:22.001Z,-3.80
2022-12-13T04:08:51.582Z,-3.80
2022-12-13T04:11:42.666Z,-3.80
2022-12-13T04:14:11.891Z,-3.90
2022-12-13T04:16:38.689Z,-3.90
2022-12-13T04:19:05.439Z,-3.90
2022-12-13T04:21:32.109Z,-3.90
2022-12-13T04:24:00.867Z,-3.90
2022-12-13T04:26:28.330Z,-3.90
2022-12-13T04:28:55.208Z,-4.00
2022-12-13T04:31:22.050Z,-4.00
2022-12-13T04:33:48.877Z,-4.00
2022-12-13T04:36:31.428Z,-4.00
2022-12-13T04:39:00.714Z,-4.00
2022-12-13T04:41:33.992Z,-4.00
2022-12-13T04:44:02.189Z,-4.10
2022-12-13T04:46:28.925Z,-4.10
2022-12-13T04:48:55.604Z,-4.20
2022-12-13T04:51:22.437Z,-4.20
2022-12-13T04:53:49.106Z,-4.30
2022-12-13T04:56:15.768Z,-4.30
2022-12-13T04:58:42.764Z,-4.30
2022-12-13T05:01:11.152Z,-4.30
2022-12-13T05:03:38.947Z,-4.40
2022-12-13T05:06:26.582Z,-4.40
2022-12-13T05:08:55.000Z,-4.50
2022-12-13T05:11:27.782Z,-4.50
2022-12-13T05:14:02.541Z,-4.60
2022-12-13T05:16:29.237Z,-4.60
2022-12-13T05:18:55.891Z,-4.60
2022-12-13T05:21:22.530Z,-4.60
2022-12-13T05:23:49.171Z,-4.70
2022-12-13T05:26:15.810Z,-4.70
2022-12-13T05:28:42.452Z,-4.70
2022-12-13T05:31:23.489Z,-4.70
2022-12-13T05:33:51.581Z,-4.70
2022-12-13T05:36:18.393Z,-4.70
2022-12-13T05:38:45.044Z,-4.70
2022-12-13T05:41:18.930Z,-4.70
2022-12-13T05:43:45.556Z,-4.70
2022-12-13T05:46:13.550Z,-4.70
2022-12-13T05:48:40.748Z,-4.70
2022-12-13T05:51:10.066Z,-4.70
2022-12-13T05:53:38.617Z,-4.80
2022-12-13T05:56:05.598Z,-4.70
2022-12-13T05:58:35.914Z,-4.80
2022-12-13T06:01:11.585Z,-4.80
2022-12-13T06:03:38.588Z,-4.80
2022-12-13T06:06:07.036Z,-4.80
2022-12-13T06:08:33.788Z,-4.80
2022-12-13T06:11:10.989Z,-4.80
2022-12-13T06:13:42.655Z,-4.80
2022-12-13T06:16:21.855Z,-4.80
2022-12-13T06:18:55.775Z,-4.80
2022-12-13T06:21:26.151Z,-4.80
2022-12-13T06:23:52.800Z,-4.80
2022-12-13T06:26:19.513Z,-4.80
2022-12-13T06:28:46.125Z,-4.80
2022-12-13T06:31:12.808Z,-4.70
2022-12-13T06:33:39.480Z,-4.70
2022-12-13T06:36:06.772Z,-4.70
2022-12-13T06:38:33.476Z,-4.70
2022-12-13T06:41:10.133Z,-4.70
2022-12-13T06:43:36.874Z,-4.70
2022-12-13T06:46:05.277Z,-4.70
2022-12-13T06:48:32.304Z,-4.70
2022-12-13T06:51:05.525Z,-4.70
2022-12-13T06:53:32.425Z,-4.60
2022-12-13T06:56:05.311Z,-4.70
2022-12-13T06:58:33.014Z,-4.60
2022-12-13T07:01:05.178Z,-4.60
2022-12-13T07:03:32.652Z,-4.60
2022-12-13T07:06:16.888Z,-4.60
2022-12-13T07:08:48.010Z,-4.50
2022-12-13T07:11:19.898Z,-4.50
2022-12-13T07:13:46.552Z,-4.50
2022-12-13T07:16:14.546Z,-4.50
2022-12-13T07:18:41.499Z,-4.50
2022-12-13T07:21:10.424Z,-4.50
2022-12-13T07:23:54.860Z,-4.50
2022-12-13T07:26:22.731Z,-4.50
2022-12-13T07:28:54.809Z,-4.50
2022-12-13T07:31:22.680Z,-4.50
2022-12-13T07:33:49.728Z,-4.50
2022-12-13T07:36:21.672Z,-4.40
2022-12-13T07:38:53.790Z,-4.40
2022-12-13T07:41:24.205Z,-4.40
2022-12-13T07:43:54.821Z,-4.40
2022-12-13T07:46:32.927Z,-4.40
2022-12-13T07:49:04.788Z,-4.30
2022-12-13T07:51:33.834Z,-4.30
2022-12-13T07:54:00.704Z,-4.30
2022-12-13T07:56:27.323Z,-4.30
2022-12-13T07:58:53.924Z,-4.20
2022-12-13T08:01:20.611Z,-4.30
2022-12-13T08:03:50.779Z,-4.30
2022-12-13T08:06:19.277Z,-4.30
2022-12-13T08:08:46.594Z,-4.20
2022-12-13T08:11:17.408Z,-4.10
2022-12-13T08:13:44.328Z,-4.10
2022-12-13T08:16:27.207Z,-4.10
2022-12-13T08:19:02.225Z,-4.10
2022-12-13T08:24:26.018Z,-4.00
2022-12-13T08:26:52.776Z,-4.00
2022-12-13T08:29:22.900Z,-3.90
2022-12-13T08:32:01.206Z,-3.90
2022-12-13T08:34:28.170Z,-3.80
2022-12-13T08:37:01.404Z,-3.70
2022-12-13T08:39:34.505Z,-3.60
2022-12-13T08:42:16.058Z,-3.50
2022-12-13T08:44:46.775Z,-3.50
2022-12-13T08:47:23.836Z,-3.40
2022-12-13T08:49:55.824Z,-3.40
2022-12-13T08:52:29.540Z,-3.30
2022-12-13T08:54:56.184Z,-3.30
2022-12-13T08:57:22.880Z,-3.20
2022-12-13T08:59:49.484Z,-3.00
2022-12-13T09:02:16.965Z,-2.90
2022-12-13T09:04:43.934Z,-2.80
2022-12-13T09:07:10.616Z,-2.70
2022-12-13T09:09:37.402Z,-2.50
2022-12-13T09:12:10.724Z,-2.20
2022-12-13T09:14:51.948Z,-2.10
2022-12-13T09:17:24.021Z,-2.00
2022-12-13T09:19:58.178Z,-1.50
2022-12-13T09:22:33.025Z,-0.20
2022-12-13T09:25:02.356Z,1.90
2022-12-13T09:27:30.820Z,4.10
2022-12-13T09:30:08.159Z,6.30
2022-12-13T09:32:34.838Z,7.70
2022-12-13T09:35:01.931Z,8.90
2022-12-13T09:37:29.764Z,10.60
2022-12-13T09:39:56.419Z,12.00
2022-12-13T09:42:30.807Z,13.10
2022-12-13T09:45:06.349Z,14.50
2022-12-13T09:47:51.387Z,16.00
2022-12-13T09:50:37.742Z,17.00
2022-12-13T09:53:11.713Z,17.60
2022-12-13T09:55:41.898Z,18.00
2022-12-13T09:58:17.150Z,17.70
2022-12-13T10:00:45.887Z,17.50
2022-12-13T10:03:15.694Z,17.40
2022-12-13T10:05:46.480Z,17.00
2022-12-13T10:08:22.840Z,17.90
2022-12-13T10:10:51.694Z,18.50
2022-12-13T10:13:39.827Z,18.60
2022-12-13T10:16:23.448Z,18.40
2022-12-13T10:18:51.139Z,18.90
2022-12-13T10:21:21.590Z,19.40
2022-12-13T10:26:38.154Z,20.20
2022-12-13T10:29:06.645Z,20.80
2022-12-13T10:31:42.655Z,21.20
2022-12-13T10:34:24.958Z,21.60
2022-12-13T10:36:52.642Z,21.90
2022-12-13T10:39:42.785Z,22.50
2022-12-13T10:42:22.990Z,22.30
2022-12-13T10:45:10.495Z,21.80
2022-12-13T10:47:37.292Z,22.00
2022-12-13T10:50:04.626Z,22.20
2022-12-13T10:52:43.192Z,22.40
2022-12-13T10:55:43.031Z,22.70
2022-12-13T10:58:19.336Z,22.90
2022-12-13T11:00:47.542Z,23.20
2022-12-13T11:03:29.740Z,23.60
2022-12-13T11:06:14.670Z,23.60
2022-12-13T11:08:41.658Z,23.70
2022-12-13T11:11:09.399Z,24.00
2022-12-13T11:13:46.390Z,23.60
2022-12-13T11:16:30.546Z,23.80
2022-12-13T11:19:02.262Z,24.40
2022-12-13T11:21:31.283Z,24.30
2022-12-13T11:24:02.318Z,24.60
2022-12-13T11:26:31.203Z,24.60
2022-12-13T11:29:33.514Z,23.40
2022-12-13T11:32:22.484Z,23.10
2022-12-13T11:35:11.371Z,23.50
2022-12-13T11:37:44.033Z,23.20
2022-12-13T11:40:25.804Z,22.90
2022-12-13T11:43:21.474Z,22.60
2022-12-13T11:45:54.660Z,21.90
2022-12-13T11:48:24.284Z,21.60
2022-12-13T11:50:53.548Z,20.70
2022-12-13T11:53:46.998Z,18.80
2022-12-13T11:56:21.741Z,18.20
2022-12-13T11:59:16.259Z,17.10
2022-12-13T12:02:22.142Z,17.60
2022-12-13T12:04:56.603Z,18.10
2022-12-13T12:08:21.201Z,17.30
2022-12-13T12:10:49.989Z,17.20
2022-12-13T12:13:23.104Z,16.80
2022-12-13T12:16:00.802Z,15.80
2022-12-13T12:18:28.458Z,15.30
2022-12-13T12:21:08.984Z,15.70
2022-12-13T12:24:07.062Z,15.00
2022-12-13T12:26:57.910Z,13.70
2022-12-13T12:29:49.723Z,13.10
2022-12-13T12:32:28.750Z,11.70
2022-12-13T12:35:25.046Z,11.00
2022-12-13T12:38:09.557Z,11.00
2022-12-13T12:43:41.219Z,12.00
2022-12-13T12:47:01.680Z,12.30
2022-12-13T12:49:32.660Z,12.10
2022-12-13T12:52:08.792Z,12.70
2022-12-13T12:55:16.276Z,12.70
2022-12-13T12:58:06.959Z,13.60
2022-12-13T13:01:11.226Z,13.90
2022-12-13T13:03:41.801Z,13.50
2022-12-13T13:06:24.008Z,12.90
2022-12-13T13:08:59.674Z,12.20
2022-12-13T13:11:29.850Z,11.70
2022-12-13T13:14:19.815Z,11.50
2022-12-13T13:16:46.670Z,10.90
2022-12-13T13:19:25.447Z,10.40
2022-12-13T13:22:01.324Z,9.80
2022-12-13T13:24:32.344Z,8.80
2022-12-13T13:27:09.781Z,8.60
2022-12-13T13:29:38.539Z,8.60
2022-12-13T13:32:28.891Z,8.30
2022-12-13T13:35:28.912Z,8.20
2022-12-13T13:37:56.417Z,8.20
2022-12-13T13:40:37.721Z,8.30
2022-12-13T13:43:15.863Z,8.40
2022-12-13T13:45:51.810Z,8.10
2022-12-13T13:48:24.683Z,7.90
2022-12-13T13:50:57.497Z,7.80
2022-12-13T13:53:40.861Z,7.90
2022-12-13T13:56:33.961Z,7.80
2022-12-13T13:59:41.482Z,7.50
2022-12-13T14:02:32.605Z,7.00
2022-12-13T14:05:34.469Z,6.40
2022-12-13T14:08:24.197Z,5.80
2022-12-13T14:11:02.570Z,5.30
2022-12-13T14:14:21.301Z,4.90
2022-12-13T14:17:27.304Z,4.50
2022-12-13T14:20:09.072Z,4.10
2022-12-13T14:22:50.225Z,3.60
2022-12-13T14:25:46.375Z,3.30
2022-12-13T14:28:46.567Z,3.00
2022-12-13T14:31:21.813Z,2.80
2022-12-13T14:33:51.875Z,2.60
2022-12-13T14:36:28.030Z,2.20
2022-12-13T14:39:24.628Z,2.10
2022-12-13T14:41:56.457Z,1.90
2022-12-13T14:44:34.392Z,1.80
2022-12-13T14:47:02.345Z,1.70
2022-12-13T14:49:32.481Z,1.50
2022-12-13T14:52:27.053Z,1.40
2022-12-13T14:55:04.617Z,1.30
2022-12-13T14:57:34.152Z,1.20
2022-12-13T15:00:21.379Z,1.10
2022-12-13T15:02:53.294Z,1.00
2022-12-13T15:05:28.678Z,0.90
2022-12-13T15:07:56.617Z,0.80
2022-12-13T15:10:40.088Z,0.70
2022-12-13T15:13:07.181Z,0.70
2022-12-13T15:15:37.673Z,0.70
2022-12-13T15:18:20.454Z,0.60
2022-12-13T15:20:49.912Z,0.60
2022-12-13T15:23:49.084Z,0.60
2022-12-13T15:26:28.425Z,0.50
2022-12-13T15:29:00.867Z,0.50
2022-12-13T15:31:28.533Z,0.40
2022-12-13T15:34:00.962Z,0.40
2022-12-13T15:36:28.998Z,0.30
2022-12-13T15:38:55.592Z,0.30
2022-12-13T15:41:34.682Z,0.20
2022-12-13T15:44:05.270Z,0.10
2022-12-13T15:46:37.560Z,0.10
2022-12-13T15:49:06.524Z,0.00
2022-12-13T15:51:33.187Z,0.00
2022-12-13T15:54:10.566Z,0.00
2022-12-13T15:56:58.580Z,-0.20
2022-12-13T15:59:30.364Z,-0.20
2022-12-13T16:01:58.820Z,-0.20
2022-12-13T16:04:29.232Z,-0.20
2022-12-13T16:06:56.415Z,-0.30
2022-12-13T16:09:25.681Z,-0.30
2022-12-13T16:11:56.144Z,-0.30
2022-12-13T16:14:48.994Z,-0.30
2022-12-13T16:17:24.362Z,-0.30
2022-12-13T16:19:56.441Z,-0.20
2022-12-13T16:22:23.997Z,-0.30
2022-12-13T16:24:51.857Z,-0.30
2022-12-13T16:27:18.724Z,-0.30
2022-12-13T16:29:45.438Z,-0.30
2022-12-13T16:32:12.109Z,-0.30
2022-12-13T16:34:38.964Z,-0.40
2022-12-13T16:37:09.039Z,-0.40
2022-12-13T16:39:52.739Z,-0.40
2022-12-13T16:42:19.664Z,-0.40
2022-12-13T16:44:47.184Z,-0.50
2022-12-13T16:47:22.253Z,-0.50
2022-12-13T16:49:51.126Z,-0.50
2022-12-13T16:52:20.505Z,-0.60
2022-12-13T16:54:48.342Z,-0.60
2022-12-13T16:57:15.033Z,-0.60
2022-12-13T16:59:41.671Z,-0.60
2022-12-13T17:02:17.272Z,-0.70
2022-12-13T17:04:43.982Z,-0.80
2022-12-13T17:07:10.637Z,-0.80
2022-12-13T17:09:37.345Z,-0.80
2022-12-13T17:12:04.146Z,-0.90
2022-12-13T17:14:30.773Z,-0.90
2022-12-13T17:16:57.491Z,-0.90
2022-12-13T17:19:24.168Z,-0.90
2022-12-13T17:21:50.897Z,-0.90
2022-12-13T17:24:17.629Z,-0.90
2022-12-13T17:26:53.887Z,-1.00
2022-12-13T17:29:20.787Z,-1.00
2022-12-13T17:31:47.425Z,-1.00
2022-12-13T17:34:14.039Z,-1.00
2022-12-13T17:36:40.670Z,-1.00
2022-12-13T17:39:07.379Z,-1.20
2022-12-13T17:41:34.012Z,-1.20
2022-12-13T17:44:01.057Z,-1.20
2022-12-13T17:46:27.821Z,-1.20
2022-12-13T17:48:54.736Z,-1.20
2022-12-13T17:51:21.444Z,-1.20
2022-12-13T17:53:48.150Z,-1.20
2022-12-13T17:56:15.995Z,-1.30
2022-12-13T17:58:43.746Z,-1.30
2022-12-13T18:01:16.942Z,-1.40
2022-12-13T18:03:44.876Z,-1.40
2022-12-13T18:06:12.130Z,-1.40
2022-12-13T18:08:40.404Z,-1.50
2022-12-13T18:11:31.685Z,-1.50
2022-12-13T18:13:55.570Z,-1.40
2022-12-13T18:16:26.717Z,-0.70
2022-12-13T18:18:57.036Z,-1.40
2022-12-13T18:21:24.812Z,-1.40
2022-12-13T18:23:54.955Z,-1.40
2022-12-13T18:26:22.232Z,-1.50
2022-12-13T18:28:48.958Z,-1.50
2022-12-13T18:31:21.885Z,-1.60
2022-12-13T18:33:49.966Z,-1.60
2022-12-13T18:36:17.976Z,-1.50
2022-12-13T18:38:45.392Z,-1.40
2022-12-13T18:41:17.798Z,-1.40
2022-12-13T18:43:45.719Z,-1.30
2022-12-13T18:46:14.096Z,-1.30
2022-12-13T18:48:41.116Z,-1.30
2022-12-13T18:51:09.604Z,-1.30
2022-12-13T18:53:37.249Z,-1.30
2022-12-13T18:56:07.183Z,-1.30
2022-12-13T18:58:35.350Z,-1.30
2022-12-13T19:01:03.366Z,-1.30
2022-12-13T19:03:31.040Z,-1.30
2022-12-13T19:05:59.813Z,-1.30
2022-12-13T19:08:28.298Z,-1.40
2022-12-13T19:11:03.908Z,-1.40
2022-12-13T19:13:32.619Z,-1.40
2022-12-13T19:16:06.352Z,-1.40
2022-12-13T19:18:33.423Z,-1.40
2022-12-13T19:21:00.201Z,-1.40
2022-12-13T19:23:27.292Z,-1.40
2022-12-13T19:25:54.242Z,-1.50
2022-12-13T19:28:20.895Z,-1.40
2022-12-13T19:30:48.123Z,-1.40
2022-12-13T19:33:15.303Z,-1.40
2022-12-13T19:35:45.228Z,-1.50
2022-12-13T19:38:12.247Z,-1.50
2022-12-13T19:40:40.834Z,-1.50
2022-12-13T19:43:07.782Z,-1.50
2022-12-13T19:45:34.427Z,-1.50
2022-12-13T19:48:01.084Z,-1.50
2022-12-13T19:50:29.012Z,-1.50
2022-12-13T19:52:56.053Z,-1.50
2022-12-13T19:55:22.726Z,-1.50
2022-12-13T19:57:49.362Z,-1.50
2022-12-13T20:00:16.498Z,-1.50
2022-12-13T20:02:43.264Z,-1.60
2022-12-13T20:05:10.016Z,-1.50
2022-12-13T20:07:36.794Z,-1.60
2022-12-13T20:10:05.231Z,-1.60
2022-12-13T20:12:35.681Z,-1.60
2022-12-13T20:15:07.956Z,-1.60
2022-12-13T20:17:35.816Z,-1.60
2022-12-13T20:20:03.840Z,-1.60
2022-12-13T20:22:31.565Z,-1.60
2022-12-13T20:24:58.589Z,-1.50
2022-12-13T20:27:25.664Z,-1.50
2022-12-13T20:29:52.604Z,-1.50
2022-12-13T20:32:20.969Z,-1.50
2022-12-13T20:34:51.706Z,-1.50
2022-12-13T20:37:21.120Z,-1.50
2022-12-13T20:39:47.808Z,-1.50
2022-12-13T20:42:14.508Z,-1.60
2022-12-13T20:44:41.169Z,-1.60
2022-12-13T20:47:07.871Z,-1.50
2022-12-13T20:49:34.586Z,-1.50
2022-12-13T20:52:01.272Z,-1.50
2022-12-13T20:54:27.978Z,-1.50
2022-12-13T20:56:54.900Z,-1.50
2022-12-13T20:59:21.638Z,-1.50
2022-12-13T21:01:48.839Z,-1.50
2022-12-13T21:04:15.965Z,-1.50
2022-12-13T21:06:42.849Z,-1.50
2022-12-13T21:09:11.009Z,-1.40
2022-12-13T21:11:40.466Z,-1.40
2022-12-13T21:14:20.892Z,-1.40
2022-12-13T21:16:50.718Z,-1.40
2022-12-13T21:19:38.909Z,-1.40
2022-12-13T21:22:06.819Z,-1.40
2022-12-13T21:24:33.501Z,-1.40
2022-12-13T21:27:00.255Z,-1.40
2022-12-13T21:29:26.914Z,-1.40
2022-12-13T21:31:54.762Z,-1.40
2022-12-13T21:34:22.493Z,-1.40
2022-12-13T21:36:52.300Z,-1.50
2022-12-13T21:39:22.718Z,-1.30
2022-12-13T21:41:49.995Z,-1.30
2022-12-13T21:44:17.773Z,-1.30
2022-12-13T21:49:31.060Z,-1.30
2022-12-13T21:51:57.731Z,-1.20
2022-12-13T21:54:24.393Z,-1.20
2022-12-13T21:57:09.856Z,-1.20
2022-12-13T21:59:36.477Z,-1.20
2022-12-13T22:02:13.496Z,-1.30
2022-12-13T22:04:46.472Z,-1.20
2022-12-13T22:07:17.187Z,-1.30
2022-12-13T22:09:44.521Z,-1.30
2022-12-13T22:12:21.193Z,-1.40
2022-12-13T22:14:48.492Z,-1.40
2022-12-13T22:17:15.285Z,-1.30
2022-12-13T22:19:41.934Z,-1.30
2022-12-13T22:22:08.699Z,-1.30
2022-12-13T22:24:35.348Z,-1.30
2022-12-13T22:27:01.997Z,-1.20
2022-12-13T22:29:28.755Z,-1.20
2022-12-13T22:31:55.421Z,-1.20
2022-12-13T22:34:22.203Z,-1.20
2022-12-13T22:36:48.841Z,-1.20
2022-12-13T22:39:20.176Z,-1.10
2022-12-13T22:41:47.610Z,-1.10
2022-12-13T22:44:15.609Z,-1.10
2022-12-13T22:46:42.945Z,-1.00
2022-12-13T22:49:10.384Z,-1.00
2022-12-13T22:51:37.541Z,-0.90
2022-12-13T22:54:04.839Z,-0.90
2022-12-13T22:56:32.042Z,-0.90
2022-12-13T22:59:03.355Z,-0.90
2022-12-13T23:01:32.884Z,-0.90
2022-12-13T23:04:00.316Z,-0.90
2022-12-13T23:06:29.351Z,-1.00
2022-12-13T23:08:59.114Z,-1.00
2022-12-13T23:11:46.105Z,-1.00
2022-12-13T23:14:15.133Z,-1.10
2022-12-13T23:16:42.515Z,-1.70
2022-12-13T23:19:40.368Z,-1.00
2022-12-13T23:21:59.267Z,-1.00
2022-12-13T23:24:26.050Z,-1.00
2022-12-13T23:26:52.750Z,-1.00
2022-12-13T23:29:19.827Z,-1.10
2022-12-13T23:31:48.589Z,-1.00
2022-12-13T23:34:16.516Z,-1.00
2022-12-13T23:36:43.290Z,-1.00
2022-12-13T23:39:11.557Z,-0.90
2022-12-13T23:41:38.467Z,-0.90
2022-12-13T23:44:05.370Z,-0.90
2022-12-13T23:46:35.460Z,-0.90
2022-12-13T23:49:04.713Z,-0.90
2022-12-13T23:51:32.356Z,-0.80
2022-12-13T23:53:59.140Z,-0.80
2022-12-13T23:56:25.889Z,-0.80
2022-12-13T23:58:52.556Z,-0.90
